sensor_id;sensor_type;location;lat;lon;timestamp;P1;durP1;ratioP1;P2;durP2;ratioP2
80249;SDS011;69561;37.974;23.708;2023-08-21T00:01:16;3.58;;;2.67;;
80249;SDS011;69561;37.974;23.708;2023-08-21T00:03:41;6.35;;;2.75;;
80249;SDS011;69561;37.974;23.708;2023-08-21T00:06:07;3.38;;;2.50;;
80249;SDS011;69561;37.974;23.708;2023-08-21T00:08:33;4.82;;;2.97;;
80249;SDS011;69561;37.974;23.708;2023-08-21T00:10:59;3.97;;;2.40;;
80249;SDS011;69561;37.974;23.708;2023-08-21T00:13:25;2.70;;;2.33;;
80249;SDS011;69561;37.974;23.708;2023-08-21T00:15:51;5.53;;;2.50;;
80249;SDS011;69561;37.974;23.708;2023-08-21T00:18:17;3.35;;;2.42;;
80249;SDS011;69561;37.974;23.708;2023-08-21T00:20:42;3.10;;;2.40;;
80249;SDS011;69561;37.974;23.708;2023-08-21T00:23:08;3.58;;;2.70;;
80249;SDS011;69561;37.974;23.708;2023-08-21T00:25:34;3.47;;;2.50;;
80249;SDS011;69561;37.974;23.708;2023-08-21T00:28:00;5.03;;;2.63;;
80249;SDS011;69561;37.974;23.708;2023-08-21T00:30:26;4.38;;;2.75;;
80249;SDS011;69561;37.974;23.708;2023-08-21T00:32:52;2.97;;;2.30;;
80249;SDS011;69561;37.974;23.708;2023-08-21T00:35:17;3.90;;;2.80;;
80249;SDS011;69561;37.974;23.708;2023-08-21T00:37:43;8.43;;;3.05;;
80249;SDS011;69561;37.974;23.708;2023-08-21T00:40:09;6.03;;;2.70;;
80249;SDS011;69561;37.974;23.708;2023-08-21T00:42:35;3.35;;;2.58;;
80249;SDS011;69561;37.974;23.708;2023-08-21T00:45:01;4.72;;;2.58;;
80249;SDS011;69561;37.974;23.708;2023-08-21T00:47:28;3.67;;;2.55;;
80249;SDS011;69561;37.974;23.708;2023-08-21T00:49:54;3.05;;;2.20;;
80249;SDS011;69561;37.974;23.708;2023-08-21T00:52:20;4.13;;;2.38;;
80249;SDS011;69561;37.974;23.708;2023-08-21T00:54:46;4.35;;;2.65;;
80249;SDS011;69561;37.974;23.708;2023-08-21T00:57:11;3.35;;;2.22;;
80249;SDS011;69561;37.974;23.708;2023-08-21T00:59:38;3.53;;;2.55;;
80249;SDS011;69561;37.974;23.708;2023-08-21T01:02:04;3.83;;;2.40;;
80249;SDS011;69561;37.974;23.708;2023-08-21T01:04:30;3.33;;;2.45;;
80249;SDS011;69561;37.974;23.708;2023-08-21T01:06:56;4.70;;;2.65;;
80249;SDS011;69561;37.974;23.708;2023-08-21T01:09:30;6.70;;;2.53;;
80249;SDS011;69561;37.974;23.708;2023-08-21T01:15:08;7.03;;;2.50;;
80249;SDS011;69561;37.974;23.708;2023-08-21T01:17:37;3.53;;;2.20;;
80249;SDS011;69561;37.974;23.708;2023-08-21T01:20:04;3.28;;;2.53;;
80249;SDS011;69561;37.974;23.708;2023-08-21T01:22:38;6.37;;;2.73;;
80249;SDS011;69561;37.974;23.708;2023-08-21T01:27:31;3.95;;;2.38;;
80249;SDS011;69561;37.974;23.708;2023-08-21T01:30:00;4.65;;;2.33;;
80249;SDS011;69561;37.974;23.708;2023-08-21T01:35:15;5.32;;;2.50;;
80249;SDS011;69561;37.974;23.708;2023-08-21T01:37:42;3.78;;;2.45;;
80249;SDS011;69561;37.974;23.708;2023-08-21T01:40:08;3.28;;;2.40;;
80249;SDS011;69561;37.974;23.708;2023-08-21T01:42:34;4.55;;;2.47;;
80249;SDS011;69561;37.974;23.708;2023-08-21T01:45:00;5.03;;;2.55;;
80249;SDS011;69561;37.974;23.708;2023-08-21T01:47:26;4.13;;;2.45;;
80249;SDS011;69561;37.974;23.708;2023-08-21T01:49:52;5.13;;;2.30;;
80249;SDS011;69561;37.974;23.708;2023-08-21T01:52:20;4.65;;;2.60;;
80249;SDS011;69561;37.974;23.708;2023-08-21T01:54:46;2.65;;;2.20;;
80249;SDS011;69561;37.974;23.708;2023-08-21T01:57:14;4.78;;;2.50;;
80249;SDS011;69561;37.974;23.708;2023-08-21T01:59:40;6.50;;;2.28;;
80249;SDS011;69561;37.974;23.708;2023-08-21T02:02:05;4.53;;;2.53;;
80249;SDS011;69561;37.974;23.708;2023-08-21T02:04:31;2.45;;;2.25;;
80249;SDS011;69561;37.974;23.708;2023-08-21T02:06:57;2.53;;;2.30;;
80249;SDS011;69561;37.974;23.708;2023-08-21T02:09:23;4.88;;;2.60;;
80249;SDS011;69561;37.974;23.708;2023-08-21T02:11:48;5.72;;;2.60;;
80249;SDS011;69561;37.974;23.708;2023-08-21T02:14:14;2.55;;;2.20;;
80249;SDS011;69561;37.974;23.708;2023-08-21T02:16:40;4.35;;;2.42;;
80249;SDS011;69561;37.974;23.708;2023-08-21T02:19:05;3.95;;;2.40;;
80249;SDS011;69561;37.974;23.708;2023-08-21T02:21:31;4.07;;;2.65;;
80249;SDS011;69561;37.974;23.708;2023-08-21T02:23:59;3.42;;;2.15;;
80249;SDS011;69561;37.974;23.708;2023-08-21T02:26:24;3.50;;;2.60;;
80249;SDS011;69561;37.974;23.708;2023-08-21T02:28:50;3.63;;;2.40;;
80249;SDS011;69561;37.974;23.708;2023-08-21T02:31:16;7.15;;;2.25;;
80249;SDS011;69561;37.974;23.708;2023-08-21T02:33:41;3.83;;;2.20;;
80249;SDS011;69561;37.974;23.708;2023-08-21T02:36:07;3.90;;;2.20;;
80249;SDS011;69561;37.974;23.708;2023-08-21T02:38:33;6.70;;;2.17;;
80249;SDS011;69561;37.974;23.708;2023-08-21T02:40:59;3.33;;;2.38;;
80249;SDS011;69561;37.974;23.708;2023-08-21T02:43:24;5.75;;;2.38;;
80249;SDS011;69561;37.974;23.708;2023-08-21T02:45:50;4.30;;;2.35;;
80249;SDS011;69561;37.974;23.708;2023-08-21T02:48:16;4.20;;;2.75;;
80249;SDS011;69561;37.974;23.708;2023-08-21T02:50:42;2.67;;;2.20;;
80249;SDS011;69561;37.974;23.708;2023-08-21T02:53:08;3.70;;;2.30;;
80249;SDS011;69561;37.974;23.708;2023-08-21T02:55:34;4.82;;;2.22;;
80249;SDS011;69561;37.974;23.708;2023-08-21T02:57:59;3.35;;;2.22;;
80249;SDS011;69561;37.974;23.708;2023-08-21T03:00:25;4.93;;;2.25;;
80249;SDS011;69561;37.974;23.708;2023-08-21T03:02:51;5.50;;;2.38;;
80249;SDS011;69561;37.974;23.708;2023-08-21T03:05:17;5.03;;;2.40;;
80249;SDS011;69561;37.974;23.708;2023-08-21T03:07:42;5.97;;;2.50;;
80249;SDS011;69561;37.974;23.708;2023-08-21T03:10:08;3.20;;;2.50;;
80249;SDS011;69561;37.974;23.708;2023-08-21T03:12:34;3.72;;;2.38;;
80249;SDS011;69561;37.974;23.708;2023-08-21T03:15:00;4.53;;;2.08;;
80249;SDS011;69561;37.974;23.708;2023-08-21T03:17:26;4.90;;;2.20;;
80249;SDS011;69561;37.974;23.708;2023-08-21T03:19:52;6.38;;;2.33;;
80249;SDS011;69561;37.974;23.708;2023-08-21T03:22:17;4.25;;;2.45;;
80249;SDS011;69561;37.974;23.708;2023-08-21T03:24:43;3.63;;;2.20;;
80249;SDS011;69561;37.974;23.708;2023-08-21T03:27:09;4.97;;;2.30;;
80249;SDS011;69561;37.974;23.708;2023-08-21T03:29:35;5.32;;;2.50;;
80249;SDS011;69561;37.974;23.708;2023-08-21T03:32:00;6.82;;;2.30;;
80249;SDS011;69561;37.974;23.708;2023-08-21T03:34:26;6.93;;;2.10;;
80249;SDS011;69561;37.974;23.708;2023-08-21T03:36:52;8.65;;;2.38;;
80249;SDS011;69561;37.974;23.708;2023-08-21T03:39:18;3.95;;;2.00;;
80249;SDS011;69561;37.974;23.708;2023-08-21T03:41:43;3.45;;;1.98;;
80249;SDS011;69561;37.974;23.708;2023-08-21T03:44:09;4.68;;;2.30;;
80249;SDS011;69561;37.974;23.708;2023-08-21T03:46:35;7.03;;;2.40;;
80249;SDS011;69561;37.974;23.708;2023-08-21T03:49:01;5.70;;;2.10;;
80249;SDS011;69561;37.974;23.708;2023-08-21T03:51:26;3.28;;;2.10;;
80249;SDS011;69561;37.974;23.708;2023-08-21T03:53:52;3.60;;;2.33;;
80249;SDS011;69561;37.974;23.708;2023-08-21T03:56:18;4.07;;;2.40;;
80249;SDS011;69561;37.974;23.708;2023-08-21T03:58:44;5.88;;;2.33;;
80249;SDS011;69561;37.974;23.708;2023-08-21T04:01:10;3.08;;;2.10;;
80249;SDS011;69561;37.974;23.708;2023-08-21T04:03:35;5.35;;;2.10;;
80249;SDS011;69561;37.974;23.708;2023-08-21T04:06:01;5.90;;;2.20;;
80249;SDS011;69561;37.974;23.708;2023-08-21T04:08:27;4.03;;;2.40;;
80249;SDS011;69561;37.974;23.708;2023-08-21T04:10:53;2.55;;;2.08;;
80249;SDS011;69561;37.974;23.708;2023-08-21T04:13:19;6.43;;;2.10;;
80249;SDS011;69561;37.974;23.708;2023-08-21T04:15:45;5.07;;;2.30;;
80249;SDS011;69561;37.974;23.708;2023-08-21T04:18:11;5.25;;;2.58;;
80249;SDS011;69561;37.974;23.708;2023-08-21T04:20:36;6.68;;;2.22;;
80249;SDS011;69561;37.974;23.708;2023-08-21T04:23:02;4.45;;;2.03;;
80249;SDS011;69561;37.974;23.708;2023-08-21T04:25:28;5.78;;;2.45;;
80249;SDS011;69561;37.974;23.708;2023-08-21T04:27:54;4.25;;;1.92;;
80249;SDS011;69561;37.974;23.708;2023-08-21T04:30:20;7.22;;;2.20;;
80249;SDS011;69561;37.974;23.708;2023-08-21T04:32:46;6.40;;;2.42;;
80249;SDS011;69561;37.974;23.708;2023-08-21T04:35:13;3.88;;;2.08;;
80249;SDS011;69561;37.974;23.708;2023-08-21T04:37:42;6.35;;;2.05;;
80249;SDS011;69561;37.974;23.708;2023-08-21T04:40:11;2.45;;;2.20;;
80249;SDS011;69561;37.974;23.708;2023-08-21T04:42:37;4.05;;;2.15;;
80249;SDS011;69561;37.974;23.708;2023-08-21T04:45:03;6.95;;;2.42;;
80249;SDS011;69561;37.974;23.708;2023-08-21T04:47:31;4.13;;;2.20;;
80249;SDS011;69561;37.974;23.708;2023-08-21T04:49:57;9.35;;;2.45;;
80249;SDS011;69561;37.974;23.708;2023-08-21T04:52:23;7.00;;;2.20;;
80249;SDS011;69561;37.974;23.708;2023-08-21T04:54:50;6.20;;;2.17;;
80249;SDS011;69561;37.974;23.708;2023-08-21T04:57:17;7.90;;;2.38;;
80249;SDS011;69561;37.974;23.708;2023-08-21T04:59:43;5.05;;;2.20;;
80249;SDS011;69561;37.974;23.708;2023-08-21T05:02:09;4.13;;;2.00;;
80249;SDS011;69561;37.974;23.708;2023-08-21T05:04:36;7.68;;;2.53;;
80249;SDS011;69561;37.974;23.708;2023-08-21T05:07:02;9.15;;;2.10;;
80249;SDS011;69561;37.974;23.708;2023-08-21T05:09:29;12.02;;;2.10;;
80249;SDS011;69561;37.974;23.708;2023-08-21T05:11:55;6.05;;;1.77;;
80249;SDS011;69561;37.974;23.708;2023-08-21T05:14:21;6.30;;;2.17;;
80249;SDS011;69561;37.974;23.708;2023-08-21T05:16:48;8.00;;;2.33;;
80249;SDS011;69561;37.974;23.708;2023-08-21T05:19:14;4.28;;;1.90;;
80249;SDS011;69561;37.974;23.708;2023-08-21T05:21:40;4.78;;;2.05;;
80249;SDS011;69561;37.974;23.708;2023-08-21T05:24:06;4.60;;;1.85;;
80249;SDS011;69561;37.974;23.708;2023-08-21T05:26:32;4.38;;;1.80;;
80249;SDS011;69561;37.974;23.708;2023-08-21T05:28:58;6.03;;;1.83;;
80249;SDS011;69561;37.974;23.708;2023-08-21T05:31:23;6.28;;;1.75;;
80249;SDS011;69561;37.974;23.708;2023-08-21T05:33:49;5.22;;;1.75;;
80249;SDS011;69561;37.974;23.708;2023-08-21T05:36:15;6.47;;;1.95;;
80249;SDS011;69561;37.974;23.708;2023-08-21T05:38:41;2.50;;;1.45;;
80249;SDS011;69561;37.974;23.708;2023-08-21T05:41:06;5.30;;;1.60;;
80249;SDS011;69561;37.974;23.708;2023-08-21T05:43:33;5.43;;;1.60;;
80249;SDS011;69561;37.974;23.708;2023-08-21T05:45:59;2.63;;;1.55;;
80249;SDS011;69561;37.974;23.708;2023-08-21T05:48:25;3.13;;;1.60;;
80249;SDS011;69561;37.974;23.708;2023-08-21T05:50:51;5.35;;;1.35;;
80249;SDS011;69561;37.974;23.708;2023-08-21T05:53:17;3.35;;;1.20;;
80249;SDS011;69561;37.974;23.708;2023-08-21T05:55:43;4.05;;;1.30;;
80249;SDS011;69561;37.974;23.708;2023-08-21T05:58:08;4.85;;;1.45;;
80249;SDS011;69561;37.974;23.708;2023-08-21T06:00:34;3.17;;;1.42;;
80249;SDS011;69561;37.974;23.708;2023-08-21T06:03:01;3.80;;;1.38;;
80249;SDS011;69561;37.974;23.708;2023-08-21T06:05:26;4.78;;;1.42;;
80249;SDS011;69561;37.974;23.708;2023-08-21T06:07:52;6.43;;;1.50;;
80249;SDS011;69561;37.974;23.708;2023-08-21T06:10:18;3.22;;;1.40;;
80249;SDS011;69561;37.974;23.708;2023-08-21T06:12:44;2.95;;;1.42;;
80249;SDS011;69561;37.974;23.708;2023-08-21T06:15:10;3.95;;;1.17;;
80249;SDS011;69561;37.974;23.708;2023-08-21T06:17:37;1.67;;;1.20;;
80249;SDS011;69561;37.974;23.708;2023-08-21T06:20:03;3.97;;;1.00;;
80249;SDS011;69561;37.974;23.708;2023-08-21T06:22:33;3.60;;;1.30;;
80249;SDS011;69561;37.974;23.708;2023-08-21T06:25:00;4.40;;;1.10;;
80249;SDS011;69561;37.974;23.708;2023-08-21T06:27:25;1.58;;;1.20;;
80249;SDS011;69561;37.974;23.708;2023-08-21T06:29:51;1.75;;;1.20;;
80249;SDS011;69561;37.974;23.708;2023-08-21T06:32:17;5.43;;;1.02;;
80249;SDS011;69561;37.974;23.708;2023-08-21T06:34:43;1.98;;;0.98;;
80249;SDS011;69561;37.974;23.708;2023-08-21T06:37:08;4.57;;;1.30;;
80249;SDS011;69561;37.974;23.708;2023-08-21T06:39:34;2.80;;;1.10;;
80249;SDS011;69561;37.974;23.708;2023-08-21T06:42:00;4.13;;;1.23;;
80249;SDS011;69561;37.974;23.708;2023-08-21T06:44:26;2.95;;;1.17;;
80249;SDS011;69561;37.974;23.708;2023-08-21T06:46:52;2.63;;;0.98;;
80249;SDS011;69561;37.974;23.708;2023-08-21T06:49:18;1.80;;;1.10;;
80249;SDS011;69561;37.974;23.708;2023-08-21T06:51:44;1.30;;;1.00;;
80249;SDS011;69561;37.974;23.708;2023-08-21T06:54:09;1.25;;;1.00;;
80249;SDS011;69561;37.974;23.708;2023-08-21T06:56:36;1.70;;;0.98;;
80249;SDS011;69561;37.974;23.708;2023-08-21T06:59:01;1.70;;;0.70;;
80249;SDS011;69561;37.974;23.708;2023-08-21T07:01:36;1.92;;;0.95;;
80249;SDS011;69561;37.974;23.708;2023-08-21T07:04:02;5.15;;;1.00;;
80249;SDS011;69561;37.974;23.708;2023-08-21T07:06:28;1.05;;;0.95;;
80249;SDS011;69561;37.974;23.708;2023-08-21T07:08:54;1.23;;;1.05;;
80249;SDS011;69561;37.974;23.708;2023-08-21T07:11:20;1.38;;;1.20;;
80249;SDS011;69561;37.974;23.708;2023-08-21T07:13:46;1.40;;;1.05;;
80249;SDS011;69561;37.974;23.708;2023-08-21T07:16:11;1.98;;;0.90;;
80249;SDS011;69561;37.974;23.708;2023-08-21T07:18:37;1.20;;;1.10;;
80249;SDS011;69561;37.974;23.708;2023-08-21T07:21:04;1.85;;;1.13;;
80249;SDS011;69561;37.974;23.708;2023-08-21T07:23:33;1.60;;;1.15;;
80249;SDS011;69561;37.974;23.708;2023-08-21T07:25:59;0.98;;;0.90;;
80249;SDS011;69561;37.974;23.708;2023-08-21T07:28:26;3.17;;;1.00;;
80249;SDS011;69561;37.974;23.708;2023-08-21T07:30:58;2.88;;;1.10;;
80249;SDS011;69561;37.974;23.708;2023-08-21T07:33:24;2.35;;;0.90;;
80249;SDS011;69561;37.974;23.708;2023-08-21T07:36:03;1.20;;;1.10;;
80249;SDS011;69561;37.974;23.708;2023-08-21T07:38:30;1.25;;;1.08;;
80249;SDS011;69561;37.974;23.708;2023-08-21T07:41:29;1.17;;;1.02;;
80249;SDS011;69561;37.974;23.708;2023-08-21T07:43:48;1.45;;;0.90;;
80249;SDS011;69561;37.974;23.708;2023-08-21T07:46:14;1.83;;;0.90;;
80249;SDS011;69561;37.974;23.708;2023-08-21T07:48:43;1.20;;;1.10;;
80249;SDS011;69561;37.974;23.708;2023-08-21T07:51:09;1.80;;;1.10;;
80249;SDS011;69561;37.974;23.708;2023-08-21T07:53:35;1.13;;;1.02;;
80249;SDS011;69561;37.974;23.708;2023-08-21T07:56:02;1.38;;;1.00;;
80249;SDS011;69561;37.974;23.708;2023-08-21T07:58:31;1.92;;;1.20;;
80249;SDS011;69561;37.974;23.708;2023-08-21T08:00:58;1.73;;;0.90;;
80249;SDS011;69561;37.974;23.708;2023-08-21T08:03:26;1.38;;;1.10;;
80249;SDS011;69561;37.974;23.708;2023-08-21T08:05:51;1.80;;;0.88;;
80249;SDS011;69561;37.974;23.708;2023-08-21T08:08:17;1.33;;;1.10;;
80249;SDS011;69561;37.974;23.708;2023-08-21T08:10:45;2.92;;;1.10;;
80249;SDS011;69561;37.974;23.708;2023-08-21T08:13:11;3.10;;;1.30;;
80249;SDS011;69561;37.974;23.708;2023-08-21T08:15:37;2.88;;;0.90;;
80249;SDS011;69561;37.974;23.708;2023-08-21T08:18:10;2.88;;;1.10;;
80249;SDS011;69561;37.974;23.708;2023-08-21T08:20:37;3.55;;;1.05;;
80249;SDS011;69561;37.974;23.708;2023-08-21T08:23:03;2.80;;;1.00;;
80249;SDS011;69561;37.974;23.708;2023-08-21T08:25:29;2.72;;;1.10;;
80249;SDS011;69561;37.974;23.708;2023-08-21T08:27:55;1.42;;;1.15;;
80249;SDS011;69561;37.974;23.708;2023-08-21T08:30:20;2.08;;;1.00;;
80249;SDS011;69561;37.974;23.708;2023-08-21T08:32:47;2.80;;;1.20;;
80249;SDS011;69561;37.974;23.708;2023-08-21T08:35:12;2.03;;;1.10;;
80249;SDS011;69561;37.974;23.708;2023-08-21T08:37:40;2.67;;;0.90;;
80249;SDS011;69561;37.974;23.708;2023-08-21T08:40:06;1.17;;;0.88;;
80249;SDS011;69561;37.974;23.708;2023-08-21T08:42:34;1.00;;;0.90;;
80249;SDS011;69561;37.974;23.708;2023-08-21T08:45:02;2.58;;;1.00;;
80249;SDS011;69561;37.974;23.708;2023-08-21T08:47:32;3.70;;;0.90;;
80249;SDS011;69561;37.974;23.708;2023-08-21T08:50:05;1.20;;;1.10;;
80249;SDS011;69561;37.974;23.708;2023-08-21T08:52:34;2.83;;;1.10;;
80249;SDS011;69561;37.974;23.708;2023-08-21T08:55:02;1.50;;;1.10;;
80249;SDS011;69561;37.974;23.708;2023-08-21T08:57:28;2.88;;;1.10;;
80249;SDS011;69561;37.974;23.708;2023-08-21T08:59:54;2.00;;;1.00;;
80249;SDS011;69561;37.974;23.708;2023-08-21T09:02:20;3.42;;;1.10;;
80249;SDS011;69561;37.974;23.708;2023-08-21T09:04:46;4.10;;;1.10;;
80249;SDS011;69561;37.974;23.708;2023-08-21T09:07:12;2.13;;;1.02;;
80249;SDS011;69561;37.974;23.708;2023-08-21T09:09:44;4.47;;;0.98;;
80249;SDS011;69561;37.974;23.708;2023-08-21T09:12:15;7.88;;;1.38;;
80249;SDS011;69561;37.974;23.708;2023-08-21T09:14:41;4.90;;;1.10;;
80249;SDS011;69561;37.974;23.708;2023-08-21T09:17:08;3.78;;;1.00;;
80249;SDS011;69561;37.974;23.708;2023-08-21T09:19:34;1.35;;;0.93;;
80249;SDS011;69561;37.974;23.708;2023-08-21T09:22:14;2.28;;;1.13;;
80249;SDS011;69561;37.974;23.708;2023-08-21T09:25:02;2.28;;;1.13;;
80249;SDS011;69561;37.974;23.708;2023-08-21T09:27:37;2.45;;;1.10;;
80249;SDS011;69561;37.974;23.708;2023-08-21T09:30:04;3.78;;;1.00;;
80249;SDS011;69561;37.974;23.708;2023-08-21T09:32:51;1.95;;;1.10;;
80249;SDS011;69561;37.974;23.708;2023-08-21T09:35:19;1.30;;;1.20;;
80249;SDS011;69561;37.974;23.708;2023-08-21T09:37:50;4.50;;;1.15;;
80249;SDS011;69561;37.974;23.708;2023-08-21T09:40:18;3.90;;;1.10;;
80249;SDS011;69561;37.974;23.708;2023-08-21T09:42:44;2.17;;;1.23;;
80249;SDS011;69561;37.974;23.708;2023-08-21T09:45:10;5.95;;;1.08;;
80249;SDS011;69561;37.974;23.708;2023-08-21T09:47:37;2.40;;;1.17;;
80249;SDS011;69561;37.974;23.708;2023-08-21T09:50:04;1.60;;;1.15;;
80249;SDS011;69561;37.974;23.708;2023-08-21T09:52:31;4.32;;;1.20;;
80249;SDS011;69561;37.974;23.708;2023-08-21T09:54:56;3.08;;;1.00;;
80249;SDS011;69561;37.974;23.708;2023-08-21T09:57:22;2.33;;;1.20;;
80249;SDS011;69561;37.974;23.708;2023-08-21T09:59:52;1.95;;;1.23;;
80249;SDS011;69561;37.974;23.708;2023-08-21T10:02:20;3.83;;;1.10;;
80249;SDS011;69561;37.974;23.708;2023-08-21T10:04:49;1.33;;;1.03;;
80249;SDS011;69561;37.974;23.708;2023-08-21T10:07:19;1.42;;;0.95;;
80249;SDS011;69561;37.974;23.708;2023-08-21T10:09:49;4.43;;;0.90;;
80249;SDS011;69561;37.974;23.708;2023-08-21T10:12:16;6.10;;;1.10;;
80249;SDS011;69561;37.974;23.708;2023-08-21T10:14:42;2.05;;;0.88;;
80249;SDS011;69561;37.974;23.708;2023-08-21T10:17:08;1.92;;;0.98;;
80249;SDS011;69561;37.974;23.708;2023-08-21T10:19:35;4.85;;;0.90;;
80249;SDS011;69561;37.974;23.708;2023-08-21T10:22:01;1.65;;;0.90;;
80249;SDS011;69561;37.974;23.708;2023-08-21T10:24:33;3.38;;;0.90;;
80249;SDS011;69561;37.974;23.708;2023-08-21T10:27:08;1.90;;;0.93;;
80249;SDS011;69561;37.974;23.708;2023-08-21T10:29:34;1.02;;;0.88;;
80249;SDS011;69561;37.974;23.708;2023-08-21T10:32:01;2.67;;;0.80;;
80249;SDS011;69561;37.974;23.708;2023-08-21T10:34:32;2.78;;;0.60;;
80249;SDS011;69561;37.974;23.708;2023-08-21T10:39:33;2.88;;;0.82;;
80249;SDS011;69561;37.974;23.708;2023-08-21T10:42:12;4.25;;;0.85;;
80249;SDS011;69561;37.974;23.708;2023-08-21T10:47:42;2.72;;;0.68;;
80249;SDS011;69561;37.974;23.708;2023-08-21T10:50:07;2.40;;;0.95;;
80249;SDS011;69561;37.974;23.708;2023-08-21T10:52:41;1.95;;;0.70;;
80249;SDS011;69561;37.974;23.708;2023-08-21T10:55:29;1.17;;;0.80;;
80249;SDS011;69561;37.974;23.708;2023-08-21T10:57:57;2.65;;;0.90;;
80249;SDS011;69561;37.974;23.708;2023-08-21T11:00:33;4.53;;;0.65;;
80249;SDS011;69561;37.974;23.708;2023-08-21T11:03:14;1.88;;;0.80;;
80249;SDS011;69561;37.974;23.708;2023-08-21T11:05:40;3.70;;;0.90;;
80249;SDS011;69561;37.974;23.708;2023-08-21T11:08:06;0.68;;;0.60;;
80249;SDS011;69561;37.974;23.708;2023-08-21T11:10:33;1.27;;;0.70;;
80249;SDS011;69561;37.974;23.708;2023-08-21T11:12:59;2.47;;;0.80;;
80249;SDS011;69561;37.974;23.708;2023-08-21T11:15:25;1.60;;;0.70;;
80249;SDS011;69561;37.974;23.708;2023-08-21T11:17:55;2.05;;;1.00;;
80249;SDS011;69561;37.974;23.708;2023-08-21T11:20:22;1.10;;;0.80;;
80249;SDS011;69561;37.974;23.708;2023-08-21T11:22:56;0.82;;;0.60;;
80249;SDS011;69561;37.974;23.708;2023-08-21T11:25:23;0.73;;;0.60;;
80249;SDS011;69561;37.974;23.708;2023-08-21T11:27:49;0.80;;;0.77;;
80249;SDS011;69561;37.974;23.708;2023-08-21T11:30:17;2.28;;;0.77;;
80249;SDS011;69561;37.974;23.708;2023-08-21T11:32:43;1.50;;;0.60;;
80249;SDS011;69561;37.974;23.708;2023-08-21T11:35:12;2.58;;;0.77;;
80249;SDS011;69561;37.974;23.708;2023-08-21T11:38:16;2.47;;;0.70;;
80249;SDS011;69561;37.974;23.708;2023-08-21T11:43:33;0.77;;;0.60;;
80249;SDS011;69561;37.974;23.708;2023-08-21T11:46:03;0.77;;;0.60;;
80249;SDS011;69561;37.974;23.708;2023-08-21T11:48:30;0.60;;;0.60;;
80249;SDS011;69561;37.974;23.708;2023-08-21T11:50:57;1.23;;;0.80;;
80249;SDS011;69561;37.974;23.708;2023-08-21T11:53:37;1.58;;;0.75;;
80249;SDS011;69561;37.974;23.708;2023-08-21T11:56:11;0.60;;;0.57;;
80249;SDS011;69561;37.974;23.708;2023-08-21T11:58:42;2.35;;;0.60;;
80249;SDS011;69561;37.974;23.708;2023-08-21T12:01:20;0.75;;;0.60;;
80249;SDS011;69561;37.974;23.708;2023-08-21T12:03:46;2.03;;;0.70;;
80249;SDS011;69561;37.974;23.708;2023-08-21T12:06:19;1.58;;;0.60;;
80249;SDS011;69561;37.974;23.708;2023-08-21T12:08:46;2.53;;;0.65;;
80249;SDS011;69561;37.974;23.708;2023-08-21T12:11:12;0.95;;;0.60;;
80249;SDS011;69561;37.974;23.708;2023-08-21T12:13:38;0.82;;;0.60;;
80249;SDS011;69561;37.974;23.708;2023-08-21T12:16:04;1.25;;;0.60;;
80249;SDS011;69561;37.974;23.708;2023-08-21T12:18:30;1.58;;;0.55;;
80249;SDS011;69561;37.974;23.708;2023-08-21T12:20:55;0.68;;;0.60;;
80249;SDS011;69561;37.974;23.708;2023-08-21T12:23:22;1.40;;;0.60;;
80249;SDS011;69561;37.974;23.708;2023-08-21T12:25:48;2.88;;;0.60;;
80249;SDS011;69561;37.974;23.708;2023-08-21T12:28:14;1.27;;;0.60;;
80249;SDS011;69561;37.974;23.708;2023-08-21T12:30:39;1.15;;;0.60;;
80249;SDS011;69561;37.974;23.708;2023-08-21T12:33:05;0.75;;;0.60;;
80249;SDS011;69561;37.974;23.708;2023-08-21T12:35:31;0.60;;;0.60;;
80249;SDS011;69561;37.974;23.708;2023-08-21T12:37:59;4.20;;;0.57;;
80249;SDS011;69561;37.974;23.708;2023-08-21T12:40:30;0.73;;;0.70;;
80249;SDS011;69561;37.974;23.708;2023-08-21T12:42:57;1.52;;;0.55;;
80249;SDS011;69561;37.974;23.708;2023-08-21T12:45:22;1.58;;;0.68;;
80249;SDS011;69561;37.974;23.708;2023-08-21T12:47:51;0.95;;;0.60;;
80249;SDS011;69561;37.974;23.708;2023-08-21T12:50:16;1.13;;;0.80;;
80249;SDS011;69561;37.974;23.708;2023-08-21T12:52:42;1.42;;;0.70;;
80249;SDS011;69561;37.974;23.708;2023-08-21T12:55:08;0.55;;;0.50;;
80249;SDS011;69561;37.974;23.708;2023-08-21T12:57:34;1.35;;;0.82;;
80249;SDS011;69561;37.974;23.708;2023-08-21T12:59:59;1.63;;;0.80;;
80249;SDS011;69561;37.974;23.708;2023-08-21T13:02:25;1.15;;;0.68;;
80249;SDS011;69561;37.974;23.708;2023-08-21T13:04:52;2.08;;;0.60;;
80249;SDS011;69561;37.974;23.708;2023-08-21T13:07:18;0.98;;;0.82;;
80249;SDS011;69561;37.974;23.708;2023-08-21T13:09:44;2.95;;;0.88;;
80249;SDS011;69561;37.974;23.708;2023-08-21T13:12:09;0.82;;;0.70;;
80249;SDS011;69561;37.974;23.708;2023-08-21T13:14:35;1.42;;;0.80;;
80249;SDS011;69561;37.974;23.708;2023-08-21T13:17:01;1.75;;;0.90;;
80249;SDS011;69561;37.974;23.708;2023-08-21T13:19:27;2.17;;;0.80;;
80249;SDS011;69561;37.974;23.708;2023-08-21T13:21:52;3.42;;;0.75;;
80249;SDS011;69561;37.974;23.708;2023-08-21T13:24:19;1.20;;;0.80;;
80249;SDS011;69561;37.974;23.708;2023-08-21T13:26:46;1.13;;;0.80;;
80249;SDS011;69561;37.974;23.708;2023-08-21T13:29:11;0.45;;;0.45;;
80249;SDS011;69561;37.974;23.708;2023-08-21T13:31:37;3.08;;;0.65;;
80249;SDS011;69561;37.974;23.708;2023-08-21T13:34:03;1.45;;;0.70;;
80249;SDS011;69561;37.974;23.708;2023-08-21T13:36:29;0.73;;;0.73;;
80249;SDS011;69561;37.974;23.708;2023-08-21T13:38:54;1.55;;;0.80;;
80249;SDS011;69561;37.974;23.708;2023-08-21T13:41:20;2.03;;;0.60;;
80249;SDS011;69561;37.974;23.708;2023-08-21T13:43:46;1.88;;;0.70;;
80249;SDS011;69561;37.974;23.708;2023-08-21T13:46:12;1.42;;;0.70;;
80249;SDS011;69561;37.974;23.708;2023-08-21T13:48:37;0.93;;;0.63;;
80249;SDS011;69561;37.974;23.708;2023-08-21T13:51:03;0.60;;;0.60;;
80249;SDS011;69561;37.974;23.708;2023-08-21T13:53:29;0.65;;;0.60;;
80249;SDS011;69561;37.974;23.708;2023-08-21T13:55:54;1.52;;;0.63;;
80249;SDS011;69561;37.974;23.708;2023-08-21T13:58:20;0.63;;;0.60;;
80249;SDS011;69561;37.974;23.708;2023-08-21T14:00:46;0.95;;;0.60;;
80249;SDS011;69561;37.974;23.708;2023-08-21T14:03:12;0.80;;;0.60;;
80249;SDS011;69561;37.974;23.708;2023-08-21T14:05:37;1.30;;;0.60;;
80249;SDS011;69561;37.974;23.708;2023-08-21T14:08:03;0.70;;;0.40;;
80249;SDS011;69561;37.974;23.708;2023-08-21T14:10:29;0.80;;;0.43;;
80249;SDS011;69561;37.974;23.708;2023-08-21T14:12:56;1.15;;;0.55;;
80249;SDS011;69561;37.974;23.708;2023-08-21T14:15:22;1.23;;;0.50;;
80249;SDS011;69561;37.974;23.708;2023-08-21T14:17:48;0.60;;;0.60;;
80249;SDS011;69561;37.974;23.708;2023-08-21T14:20:15;0.90;;;0.65;;
80249;SDS011;69561;37.974;23.708;2023-08-21T14:22:41;0.60;;;0.50;;
80249;SDS011;69561;37.974;23.708;2023-08-21T14:25:07;0.70;;;0.50;;
80249;SDS011;69561;37.974;23.708;2023-08-21T14:27:33;0.65;;;0.57;;
80249;SDS011;69561;37.974;23.708;2023-08-21T14:29:59;0.63;;;0.60;;
80249;SDS011;69561;37.974;23.708;2023-08-21T14:32:25;0.90;;;0.63;;
80249;SDS011;69561;37.974;23.708;2023-08-21T14:34:51;0.50;;;0.50;;
80249;SDS011;69561;37.974;23.708;2023-08-21T14:37:20;0.95;;;0.50;;
80249;SDS011;69561;37.974;23.708;2023-08-21T14:39:46;1.35;;;0.50;;
80249;SDS011;69561;37.974;23.708;2023-08-21T14:42:13;1.27;;;0.52;;
80249;SDS011;69561;37.974;23.708;2023-08-21T14:44:38;1.10;;;0.60;;
80249;SDS011;69561;37.974;23.708;2023-08-21T14:47:04;0.95;;;0.60;;
80249;SDS011;69561;37.974;23.708;2023-08-21T14:49:30;2.47;;;0.68;;